Time;durP1;ratioP1;P1;durP2;ratioP2;P2;SDS_P1;SDS_P2;PMS_P1;PMS_P2;Temp;Humidity;BMP_temperature;BMP_pressure;BME280_temperature;BME280_humidity;BME280_pressure;Samples;Min_cycle;Max_cycle;Signal;HPM_P1;HPM_P2
2024/01/04 00:02:13;;;;;;;2.13;0.70;;;8.10;99.90;;;;;;5026047;28;20029;-68
2024/01/04 00:04:40;;;;;;;2.50;0.50;;;8.10;99.90;;;;;;5040152;28;20025;-68
2024/01/04 00:07:06;;;;;;;1.10;0.50;;;8.10;99.90;;;;;;5029108;28;20048;-67
2024/01/04 00:09:31;;;;;;;2.30;0.45;;;8.10;99.90;;;;;;5027681;28;20029;-68
2024/01/04 00:11:57;;;;;;;3.08;0.55;;;8.10;99.90;;;;;;5024459;28;20045;-68
2024/01/04 00:14:22;;;;;;;1.60;0.40;;;8.10;99.90;;;;;;5025145;28;20033;-67
2024/01/04 00:16:48;;;;;;;1.95;0.68;;;8.00;99.90;;;;;;5027568;28;20034;-70
2024/01/04 00:19:14;;;;;;;1.67;0.70;;;8.00;99.90;;;;;;5026034;28;20400;-70
2024/01/04 00:21:40;;;;;;;3.25;0.63;;;8.00;99.90;;;;;;5024975;28;20507;-69
2024/01/04 00:24:06;;;;;;;1.98;0.65;;;7.90;99.90;;;;;;5020143;28;20025;-69
2024/01/04 00:26:32;;;;;;;1.88;0.32;;;8.00;99.90;;;;;;5029527;28;20029;-69
2024/01/04 00:28:58;;;;;;;1.90;0.50;;;7.90;99.90;;;;;;5026818;28;20029;-70
2024/01/04 00:31:23;;;;;;;4.10;0.98;;;7.90;99.90;;;;;;5023074;28;20488;-68
2024/01/04 00:33:49;;;;;;;4.35;1.48;;;8.00;99.90;;;;;;5024851;28;20032;-68
2024/01/04 00:36:15;;;;;;;3.33;0.63;;;8.00;99.90;;;;;;5022742;28;20135;-69
2024/01/04 00:38:41;;;;;;;3.17;0.70;;;8.00;99.90;;;;;;5027455;28;20033;-70
2024/01/04 00:41:06;;;;;;;4.20;0.68;;;8.00;99.90;;;;;;5028444;28;20024;-68
2024/01/04 00:43:32;;;;;;;2.50;0.70;;;8.00;99.90;;;;;;5026116;28;20045;-68
2024/01/04 00:45:58;;;;;;;2.72;0.70;;;8.00;99.90;;;;;;5026662;28;20044;-68
2024/01/04 00:48:24;;;;;;;1.05;0.40;;;8.00;99.90;;;;;;5025582;28;20100;-68
2024/01/04 00:50:50;;;;;;;2.33;0.43;;;8.10;99.90;;;;;;5029848;28;20097;-68
2024/01/04 00:53:15;;;;;;;5.95;0.60;;;8.00;99.90;;;;;;5026457;28;20385;-68
2024/01/04 00:55:41;;;;;;;2.85;0.55;;;8.00;99.90;;;;;;5027063;28;20033;-70
2024/01/04 00:58:07;;;;;;;3.22;0.88;;;8.00;99.90;;;;;;5027233;28;20361;-70
2024/01/04 01:00:32;;;;;;;3.00;0.50;;;8.00;99.90;;;;;;5023785;28;20072;-70
2024/01/04 01:02:59;;;;;;;2.30;0.50;;;7.90;99.90;;;;;;5022514;28;20389;-70
2024/01/04 01:05:24;;;;;;;1.02;0.40;;;8.00;99.90;;;;;;5026839;28;20349;-70
2024/01/04 01:07:50;;;;;;;2.17;0.52;;;7.90;99.90;;;;;;5024245;28;20093;-70
2024/01/04 01:10:16;;;;;;;2.63;0.40;;;7.90;99.90;;;;;;5022597;28;20050;-69
2024/01/04 01:12:41;;;;;;;3.20;0.50;;;7.90;99.90;;;;;;5022981;28;20064;-68
2024/01/04 01:15:07;;;;;;;3.08;0.43;;;7.90;99.90;;;;;;5025403;28;20574;-68
2024/01/04 01:17:33;;;;;;;3.20;0.60;;;7.90;99.90;;;;;;5024153;28;20032;-69
2024/01/04 01:19:58;;;;;;;3.38;0.80;;;7.90;99.90;;;;;;5026560;28;20480;-68
2024/01/04 01:22:26;;;;;;;4.20;0.98;;;7.90;99.90;;;;;;5023919;28;20021;-68
2024/01/04 01:24:52;;;;;;;4.85;0.60;;;7.90;99.90;;;;;;5026770;28;20105;-68
2024/01/04 01:27:17;;;;;;;5.50;0.70;;;7.90;99.90;;;;;;5024481;28;20545;-68
2024/01/04 01:29:43;;;;;;;2.10;0.30;;;7.90;99.90;;;;;;5023441;28;20087;-70
2024/01/04 01:32:09;;;;;;;2.13;0.40;;;7.90;99.90;;;;;;5026669;28;20079;-69
2024/01/04 01:34:34;;;;;;;2.67;0.63;;;7.90;99.90;;;;;;5030126;28;20037;-69
2024/01/04 01:37:00;;;;;;;0.82;0.47;;;7.90;99.90;;;;;;5026085;28;20029;-69
2024/01/04 01:39:25;;;;;;;2.60;0.47;;;7.90;99.90;;;;;;5026011;28;20028;-69
2024/01/04 01:41:51;;;;;;;2.42;0.55;;;7.90;99.90;;;;;;5028545;28;20025;-69
2024/01/04 01:44:17;;;;;;;2.17;0.65;;;7.90;99.90;;;;;;5021484;28;20029;-69
2024/01/04 01:46:44;;;;;;;6.03;0.90;;;7.90;99.90;;;;;;5027252;28;20037;-69
2024/01/04 01:49:10;;;;;;;3.20;0.40;;;7.90;99.90;;;;;;5026455;28;20033;-69
2024/01/04 01:51:36;;;;;;;3.40;0.63;;;7.90;99.90;;;;;;5027684;28;20037;-69
2024/01/04 01:54:03;;;;;;;3.33;0.40;;;7.90;99.90;;;;;;5021224;28;20029;-69
2024/01/04 01:56:30;;;;;;;2.35;0.93;;;7.90;99.90;;;;;;5025537;28;20029;-69
2024/01/04 01:58:57;;;;;;;2.67;0.40;;;7.90;99.90;;;;;;5026630;28;20030;-69
2024/01/04 02:01:23;;;;;;;1.60;0.73;;;7.90;99.90;;;;;;5026629;28;20545;-69
2024/01/04 02:03:50;;;;;;;4.63;0.50;;;8.00;99.90;;;;;;5022921;28;20036;-69
2024/01/04 02:06:15;;;;;;;3.15;0.50;;;8.00;99.90;;;;;;5026405;28;20112;-69
2024/01/04 02:08:45;;;;;;;3.58;0.50;;;8.00;99.90;;;;;;5025095;28;20060;-69
2024/01/04 02:11:11;;;;;;;5.32;1.10;;;8.00;99.90;;;;;;5027145;28;20037;-69
2024/01/04 02:13:37;;;;;;;1.48;0.50;;;8.00;99.90;;;;;;5019584;28;20489;-69
2024/01/04 02:16:03;;;;;;;1.80;0.55;;;8.10;99.90;;;;;;5028910;28;20068;-69
2024/01/04 02:18:28;;;;;;;2.70;0.50;;;8.10;99.90;;;;;;5027347;28;20082;-69
2024/01/04 02:20:54;;;;;;;4.13;0.57;;;8.00;99.90;;;;;;5037825;28;20030;-69
2024/01/04 02:23:19;;;;;;;2.40;0.77;;;8.00;99.90;;;;;;5023750;28;20067;-69
2024/01/04 02:25:45;;;;;;;0.90;0.30;;;8.00;99.90;;;;;;5029241;28;20664;-69
2024/01/04 02:28:10;;;;;;;2.83;0.60;;;7.90;99.90;;;;;;5020162;28;20032;-69
2024/01/04 02:30:36;;;;;;;2.55;0.52;;;7.90;99.90;;;;;;5026948;28;20033;-69
2024/01/04 02:33:02;;;;;;;2.03;0.63;;;7.90;99.90;;;;;;5028549;28;20041;-69
2024/01/04 02:35:28;;;;;;;4.00;0.40;;;7.80;99.90;;;;;;5044326;28;20037;-69
2024/01/04 02:37:53;;;;;;;2.75;0.40;;;7.80;99.90;;;;;;5026143;28;20042;-69
2024/01/04 02:40:20;;;;;;;3.08;0.60;;;7.80;99.90;;;;;;5028981;28;20030;-69
2024/01/04 02:42:46;;;;;;;2.03;0.38;;;7.80;99.90;;;;;;5023331;28;20030;-69
2024/01/04 02:45:13;;;;;;;3.50;0.60;;;7.70;99.90;;;;;;5026303;28;20385;-69
2024/01/04 02:47:39;;;;;;;2.20;0.40;;;7.70;99.90;;;;;;5023564;28;20029;-69
2024/01/04 02:50:04;;;;;;;2.80;0.45;;;7.70;99.90;;;;;;5028304;28;20022;-69
2024/01/04 02:52:30;;;;;;;3.13;0.55;;;7.70;99.90;;;;;;5023262;28;20037;-69
2024/01/04 02:54:55;;;;;;;3.42;0.70;;;7.60;99.90;;;;;;5027875;28;20120;-69
2024/01/04 02:57:21;;;;;;;2.13;0.50;;;7.60;99.90;;;;;;5027493;28;20435;-69
2024/01/04 02:59:47;;;;;;;2.80;0.50;;;7.60;99.90;;;;;;5023303;28;20056;-69
2024/01/04 03:02:15;;;;;;;3.35;0.55;;;7.60;99.90;;;;;;5029169;28;20029;-69
2024/01/04 03:04:42;;;;;;;2.38;0.65;;;7.50;99.90;;;;;;5027280;28;20034;-69
2024/01/04 03:07:08;;;;;;;3.75;0.70;;;7.50;99.90;;;;;;5024344;28;20022;-69
2024/01/04 03:09:33;;;;;;;2.90;0.45;;;7.50;99.90;;;;;;5024795;28;20040;-69
2024/01/04 03:11:59;;;;;;;3.28;0.70;;;7.50;99.90;;;;;;5029329;28;20122;-69
2024/01/04 03:14:24;;;;;;;1.45;0.60;;;7.50;99.90;;;;;;5028399;28;20037;-69
2024/01/04 03:16:50;;;;;;;1.38;0.40;;;7.40;99.90;;;;;;5025685;28;20534;-69
2024/01/04 03:19:15;;;;;;;3.63;0.80;;;7.40;99.90;;;;;;5027261;28;20101;-69
2024/01/04 03:21:41;;;;;;;1.65;0.40;;;7.40;99.90;;;;;;5028131;28;20034;-68
2024/01/04 03:24:07;;;;;;;2.55;0.30;;;7.40;99.90;;;;;;5031281;28;20036;-69
2024/01/04 03:26:32;;;;;;;2.47;0.50;;;7.30;99.90;;;;;;5028566;28;20032;-69
2024/01/04 03:28:58;;;;;;;3.33;0.50;;;7.30;99.90;;;;;;5026877;28;20026;-69
2024/01/04 03:31:24;;;;;;;3.08;0.43;;;7.30;99.90;;;;;;5031232;28;20048;-69
2024/01/04 03:33:49;;;;;;;3.13;0.40;;;7.30;99.90;;;;;;5024897;28;20092;-68
2024/01/04 03:36:15;;;;;;;3.70;0.50;;;7.30;99.90;;;;;;5029413;28;20536;-68
2024/01/04 03:38:41;;;;;;;4.43;0.60;;;7.30;99.90;;;;;;5029716;28;20033;-69
2024/01/04 03:41:07;;;;;;;1.30;0.40;;;7.20;99.90;;;;;;5033152;28;20850;-69
2024/01/04 03:43:34;;;;;;;2.38;0.30;;;7.20;99.90;;;;;;5025254;28;20021;-69
2024/01/04 03:46:00;;;;;;;2.40;0.50;;;7.30;99.90;;;;;;5031780;28;20680;-70
2024/01/04 03:48:25;;;;;;;1.98;0.50;;;7.20;99.90;;;;;;5029328;28;20032;-70
2024/01/04 03:50:51;;;;;;;2.03;0.50;;;7.20;99.90;;;;;;5029769;28;20104;-70
2024/01/04 03:53:17;;;;;;;2.50;0.38;;;7.20;99.90;;;;;;5030561;28;20049;-70
2024/01/04 03:55:42;;;;;;;2.50;0.63;;;7.20;99.90;;;;;;5031134;28;20044;-69
2024/01/04 03:58:08;;;;;;;1.02;0.45;;;7.10;99.90;;;;;;5029885;28;20061;-70
2024/01/04 04:00:33;;;;;;;1.98;0.35;;;7.10;99.90;;;;;;5026561;28;20109;-70
2024/01/04 04:02:59;;;;;;;4.22;0.73;;;7.10;99.90;;;;;;5027090;28;20025;-69
2024/01/04 04:05:24;;;;;;;1.30;0.30;;;7.10;99.90;;;;;;5028443;28;20074;-69
2024/01/04 04:07:50;;;;;;;3.60;0.30;;;7.00;99.90;;;;;;5028616;28;20022;-70
2024/01/04 04:10:16;;;;;;;1.05;0.50;;;7.00;99.90;;;;;;5029404;28;20531;-69
2024/01/04 04:12:41;;;;;;;1.48;0.40;;;7.00;99.90;;;;;;5026696;28;20372;-69
2024/01/04 04:15:08;;;;;;;2.72;0.40;;;7.00;99.90;;;;;;5028413;28;20040;-70
2024/01/04 04:17:34;;;;;;;2.28;0.40;;;7.00;99.90;;;;;;5025303;28;20100;-69
2024/01/04 04:20:00;;;;;;;2.08;0.40;;;7.00;99.90;;;;;;5028696;28;20034;-69
2024/01/04 04:22:26;;;;;;;0.98;0.50;;;7.00;99.90;;;;;;5026014;28;20021;-70
2024/01/04 04:24:51;;;;;;;2.50;0.38;;;7.00;99.90;;;;;;5027778;28;20033;-69
2024/01/04 04:27:17;;;;;;;1.60;0.30;;;7.00;99.90;;;;;;5026191;28;20032;-70
2024/01/04 04:29:43;;;;;;;5.20;0.85;;;7.00;99.90;;;;;;5044113;28;20034;-69
2024/01/04 04:32:09;;;;;;;2.25;0.30;;;7.00;99.90;;;;;;5026919;28;20504;-69
2024/01/04 04:34:35;;;;;;;0.60;0.30;;;7.00;99.90;;;;;;5025526;28;20092;-70
2024/01/04 04:37:01;;;;;;;1.55;0.30;;;7.00;99.90;;;;;;5026700;28;20037;-69
2024/01/04 04:39:26;;;;;;;1.42;0.22;;;7.00;99.90;;;;;;5029304;28;20550;-70
2024/01/04 04:41:52;;;;;;;0.80;0.22;;;7.00;99.90;;;;;;5027946;28;20060;-70
2024/01/04 04:44:17;;;;;;;2.47;0.30;;;7.00;99.90;;;;;;5024870;28;20017;-70
2024/01/04 04:46:43;;;;;;;1.17;0.30;;;7.00;99.90;;;;;;5030351;28;20040;-69
2024/01/04 04:49:09;;;;;;;2.30;0.30;;;7.10;99.90;;;;;;5028637;28;20029;-70
2024/01/04 04:51:34;;;;;;;2.50;0.55;;;7.10;99.90;;;;;;5028702;28;20555;-69
2024/01/04 04:54:00;;;;;;;2.22;0.40;;;7.00;99.90;;;;;;5027845;28;20037;-69
2024/01/04 04:56:25;;;;;;;2.65;0.50;;;7.10;99.90;;;;;;5026365;28;20499;-70
2024/01/04 04:58:51;;;;;;;4.20;0.65;;;7.10;99.90;;;;;;5028696;28;20029;-70
2024/01/04 05:01:17;;;;;;;0.80;0.30;;;7.10;99.90;;;;;;5040133;28;20033;-70
2024/01/04 05:03:42;;;;;;;1.85;0.50;;;7.20;99.90;;;;;;5024398;28;20229;-70
2024/01/04 05:06:10;;;;;;;2.67;0.30;;;7.20;99.90;;;;;;5031111;28;20369;-70
2024/01/04 05:08:37;;;;;;;1.05;0.28;;;7.20;99.90;;;;;;5020312;28;20033;-70
2024/01/04 05:11:04;;;;;;;2.88;0.70;;;7.20;99.90;;;;;;5025612;28;20030;-70
2024/01/04 05:13:30;;;;;;;1.33;0.30;;;7.20;99.90;;;;;;5028937;28;20021;-70
2024/01/04 05:15:56;;;;;;;2.60;0.30;;;7.20;99.90;;;;;;5028813;28;20046;-70
2024/01/04 05:18:21;;;;;;;2.50;0.38;;;7.20;99.90;;;;;;5022426;28;20033;-69
2024/01/04 05:20:47;;;;;;;3.88;0.70;;;7.20;99.90;;;;;;5027637;28;20032;-69
2024/01/04 05:23:12;;;;;;;4.30;0.73;;;7.20;99.90;;;;;;5029921;28;20095;-70
2024/01/04 05:25:38;;;;;;;2.65;0.40;;;7.20;99.90;;;;;;5023819;28;20032;-70
2024/01/04 05:28:04;;;;;;;1.35;0.40;;;7.20;99.90;;;;;;5025436;28;20029;-70
2024/01/04 05:30:30;;;;;;;2.83;0.30;;;7.20;99.90;;;;;;5031343;28;20395;-70
2024/01/04 05:32:55;;;;;;;1.13;0.32;;;7.10;99.90;;;;;;5031602;28;20026;-68
2024/01/04 05:35:21;;;;;;;1.73;0.20;;;7.10;99.90;;;;;;5027521;28;20123;-70
2024/01/04 05:37:46;;;;;;;1.15;0.20;;;7.10;99.90;;;;;;5027446;28;20041;-70
2024/01/04 05:40:12;;;;;;;0.95;0.35;;;7.20;99.90;;;;;;5027794;28;20026;-70
2024/01/04 05:42:38;;;;;;;3.03;0.40;;;7.10;99.90;;;;;;5023530;28;20025;-69
2024/01/04 05:45:04;;;;;;;1.67;0.30;;;7.10;99.90;;;;;;5026266;28;20101;-69
2024/01/04 05:47:30;;;;;;;2.22;0.50;;;7.10;99.90;;;;;;5029374;28;20029;-69
2024/01/04 05:49:56;;;;;;;2.28;0.40;;;7.10;99.90;;;;;;5027872;28;20427;-69
2024/01/04 05:52:22;;;;;;;2.90;0.40;;;7.10;99.90;;;;;;5041781;28;20025;-69
2024/01/04 05:54:48;;;;;;;2.03;0.57;;;7.20;99.90;;;;;;5027813;28;20030;-68
2024/01/04 05:57:13;;;;;;;1.35;0.47;;;7.10;99.90;;;;;;5026504;28;20045;-69
2024/01/04 05:59:39;;;;;;;3.78;0.40;;;7.10;99.90;;;;;;5024407;28;20056;-69
2024/01/04 06:02:04;;;;;;;2.80;0.55;;;7.10;99.90;;;;;;5027035;28;20118;-69
2024/01/04 06:04:30;;;;;;;2.13;0.65;;;7.20;99.90;;;;;;5023917;28;20341;-69
2024/01/04 06:06:55;;;;;;;3.00;0.50;;;7.20;99.90;;;;;;5027396;28;20021;-69
2024/01/04 06:09:21;;;;;;;1.75;0.50;;;7.20;99.90;;;;;;5024132;28;20072;-69
2024/01/04 06:11:47;;;;;;;3.90;1.10;;;7.20;99.90;;;;;;5031014;28;20480;-69
2024/01/04 06:14:13;;;;;;;4.78;0.60;;;7.20;99.90;;;;;;5026529;28;20366;-69
2024/01/04 06:16:39;;;;;;;3.08;0.52;;;7.20;99.90;;;;;;5038559;28;20040;-69
2024/01/04 06:19:05;;;;;;;3.05;1.15;;;7.20;99.90;;;;;;5039891;28;20027;-69
2024/01/04 06:21:30;;;;;;;1.20;0.70;;;7.20;99.90;;;;;;5027023;28;20104;-69
2024/01/04 06:23:57;;;;;;;1.92;0.43;;;7.20;99.90;;;;;;5024809;28;20041;-69
2024/01/04 06:26:23;;;;;;;2.88;0.77;;;7.20;99.90;;;;;;5026130;28;20025;-69
2024/01/04 06:28:49;;;;;;;4.50;0.57;;;7.10;99.90;;;;;;5024946;28;20034;-69
2024/01/04 06:31:15;;;;;;;2.38;0.93;;;7.10;99.90;;;;;;5025016;28;20398;-68
2024/01/04 06:33:40;;;;;;;5.50;0.70;;;7.10;99.90;;;;;;5020604;28;20044;-69
2024/01/04 06:36:07;;;;;;;1.92;0.50;;;7.10;99.90;;;;;;5032698;28;20507;-69
2024/01/04 06:38:35;;;;;;;1.88;0.40;;;7.10;99.90;;;;;;5031960;28;20024;-69
2024/01/04 06:41:03;;;;;;;2.28;0.50;;;7.00;99.90;;;;;;5030820;28;20144;-69
2024/01/04 06:43:30;;;;;;;1.45;0.47;;;7.10;99.90;;;;;;5028096;28;20132;-69
2024/01/04 06:45:58;;;;;;;2.28;0.52;;;7.10;99.90;;;;;;5031686;28;20061;-69
2024/01/04 06:48:25;;;;;;;1.83;0.50;;;7.00;99.90;;;;;;5030130;28;20029;-69
2024/01/04 06:50:50;;;;;;;3.33;0.57;;;7.00;99.90;;;;;;5027420;28;20120;-69
2024/01/04 06:53:16;;;;;;;2.78;1.02;;;7.10;99.90;;;;;;5029416;28;20042;-68
2024/01/04 06:55:42;;;;;;;2.80;0.25;;;7.10;99.90;;;;;;5028294;28;20037;-68
2024/01/04 06:58:11;;;;;;;3.40;0.50;;;7.10;99.90;;;;;;5031251;28;20551;-69
2024/01/04 07:00:36;;;;;;;1.88;0.30;;;7.10;99.90;;;;;;5028960;28;20029;-69
2024/01/04 07:03:03;;;;;;;0.80;0.40;;;7.10;99.90;;;;;;5031295;28;20096;-69
2024/01/04 07:05:29;;;;;;;0.90;0.30;;;7.10;99.90;;;;;;5026097;28;20057;-69
2024/01/04 07:07:54;;;;;;;1.95;0.43;;;7.00;99.90;;;;;;5027860;28;20068;-68
2024/01/04 07:10:20;;;;;;;1.35;0.40;;;7.00;99.90;;;;;;5028929;28;20049;-69
2024/01/04 07:12:46;;;;;;;2.38;0.50;;;7.00;99.90;;;;;;5026514;28;20061;-69
2024/01/04 07:15:13;;;;;;;2.85;0.47;;;7.00;99.90;;;;;;5023135;28;20021;-70
2024/01/04 07:17:39;;;;;;;1.95;0.40;;;7.00;99.90;;;;;;5025685;28;20057;-70
2024/01/04 07:20:06;;;;;;;1.40;0.50;;;7.00;99.90;;;;;;5028572;28;20121;-69
2024/01/04 07:22:32;;;;;;;1.52;0.45;;;7.00;99.90;;;;;;5030418;28;20108;-68
2024/01/04 07:24:58;;;;;;;2.90;0.30;;;7.00;99.90;;;;;;5026488;28;20021;-69
2024/01/04 07:27:23;;;;;;;10.75;2.67;;;7.00;99.90;;;;;;5027051;28;20666;-71
2024/01/04 07:29:49;;;;;;;8.07;0.95;;;7.10;99.90;;;;;;5026232;28;20060;-70
2024/01/04 07:32:18;;;;;;;3.03;0.70;;;7.50;99.90;;;;;;5029380;28;20022;-70
2024/01/04 07:34:44;;;;;;;2.90;0.50;;;7.90;99.90;;;;;;5030975;28;20021;-69
2024/01/04 07:37:09;;;;;;;4.35;0.80;;;8.10;99.90;;;;;;5031647;28;20429;-70
2024/01/04 07:39:35;;;;;;;2.55;0.60;;;8.20;99.90;;;;;;5025475;28;20065;-71
2024/01/04 07:42:01;;;;;;;3.05;0.57;;;8.40;99.90;;;;;;5023877;28;20037;-71
2024/01/04 07:44:27;;;;;;;2.25;0.40;;;8.40;99.90;;;;;;5017786;28;20609;-71
2024/01/04 07:46:53;;;;;;;2.25;0.80;;;8.20;99.90;;;;;;5027568;28;20030;-71
2024/01/04 07:49:18;;;;;;;1.83;0.45;;;8.10;99.90;;;;;;5020466;28;20388;-71
2024/01/04 07:51:44;;;;;;;3.80;0.45;;;8.00;99.90;;;;;;5021499;28;20140;-71
2024/01/04 07:54:10;;;;;;;4.50;0.70;;;7.90;99.90;;;;;;5028149;28;20024;-71
2024/01/04 07:56:35;;;;;;;3.33;0.65;;;7.70;99.90;;;;;;5027155;28;20057;-71
2024/01/04 07:59:02;;;;;;;1.92;0.60;;;7.50;99.90;;;;;;5024692;28;20060;-71
2024/01/04 08:01:28;;;;;;;2.80;0.40;;;7.50;99.90;;;;;;5021557;28;20033;-71
2024/01/04 08:03:53;;;;;;;8.05;1.60;;;7.50;99.90;;;;;;5021102;28;20393;-70
2024/01/04 08:06:19;;;;;;;3.92;0.70;;;7.40;99.90;;;;;;5033680;28;20425;-70
2024/01/04 08:08:45;;;;;;;4.15;0.68;;;7.40;99.90;;;;;;5023525;28;20039;-71
2024/01/04 08:11:10;;;;;;;1.58;0.65;;;7.30;99.90;;;;;;5024184;28;20029;-71
2024/01/04 08:13:36;;;;;;;4.05;0.80;;;7.30;99.90;;;;;;5024006;28;20106;-71
2024/01/04 08:16:02;;;;;;;2.55;0.50;;;7.30;99.90;;;;;;5022373;28;20112;-71
2024/01/04 08:18:28;;;;;;;2.35;0.50;;;7.30;99.90;;;;;;5020807;28;20088;-71
2024/01/04 08:20:54;;;;;;;3.50;1.13;;;7.30;99.90;;;;;;5022873;28;20021;-71
2024/01/04 08:23:19;;;;;;;3.75;0.82;;;7.30;99.90;;;;;;5023909;28;20101;-71
2024/01/04 08:25:45;;;;;;;4.00;0.65;;;7.40;99.90;;;;;;5024181;28;20034;-71
2024/01/04 08:28:12;;;;;;;5.00;0.70;;;7.40;99.90;;;;;;5023568;28;20022;-71
2024/01/04 08:30:38;;;;;;;2.78;0.52;;;7.40;99.90;;;;;;5026663;28;20034;-71
2024/01/04 08:33:03;;;;;;;4.85;0.65;;;7.50;99.90;;;;;;5023550;28;20033;-71
2024/01/04 08:35:29;;;;;;;4.78;0.65;;;7.40;99.90;;;;;;5024069;28;20507;-70
2024/01/04 08:37:55;;;;;;;2.67;1.10;;;7.50;99.90;;;;;;5026193;28;20044;-71
2024/01/04 08:40:21;;;;;;;3.88;1.75;;;7.50;99.90;;;;;;5023628;28;20350;-70
2024/01/04 08:42:47;;;;;;;11.73;4.80;;;7.50;99.90;;;;;;5021930;28;20017;-72
2024/01/04 08:45:13;;;;;;;5.53;2.25;;;7.50;99.90;;;;;;5024150;28;20029;-70
2024/01/04 08:47:39;;;;;;;1.45;0.60;;;7.60;99.90;;;;;;5024265;28;20626;-71
2024/01/04 08:50:06;;;;;;;2.55;0.70;;;7.60;99.90;;;;;;5023955;28;20419;-70
2024/01/04 08:52:31;;;;;;;3.47;0.98;;;7.60;99.90;;;;;;5029131;28;20482;-70
2024/01/04 08:54:58;;;;;;;4.95;0.80;;;7.60;99.90;;;;;;5026495;28;20057;-71
2024/01/04 08:57:23;;;;;;;4.78;1.42;;;7.60;99.90;;;;;;5022216;28;20484;-71
2024/01/04 08:59:50;;;;;;;3.35;0.75;;;7.60;99.90;;;;;;5024347;28;20032;-71
2024/01/04 09:02:15;;;;;;;2.13;0.88;;;7.70;99.90;;;;;;5021931;28;20029;-71
2024/01/04 09:04:41;;;;;;;7.13;1.95;;;7.70;99.90;;;;;;5014284;28;20500;-72
2024/01/04 09:07:10;;;;;;;4.63;1.13;;;7.80;99.90;;;;;;5024038;28;20036;-70
2024/01/04 09:09:36;;;;;;;7.20;1.65;;;7.80;99.90;;;;;;5025439;28;20116;-70
2024/01/04 09:12:01;;;;;;;4.13;0.63;;;7.90;99.90;;;;;;5022574;28;20033;-72
2024/01/04 09:14:27;;;;;;;5.80;1.10;;;7.90;99.90;;;;;;5020847;28;20033;-72
2024/01/04 09:16:53;;;;;;;3.47;1.23;;;7.90;99.90;;;;;;5025960;28;20084;-71
2024/01/04 09:19:19;;;;;;;3.97;0.90;;;8.00;99.90;;;;;;5024732;28;20032;-71
2024/01/04 09:21:50;;;;;;;2.25;1.30;;;8.10;99.90;;;;;;5021764;28;20056;-71
2024/01/04 09:24:22;;;;;;;2.20;0.90;;;8.10;99.90;;;;;;5024754;28;20139;-71
2024/01/04 09:26:48;;;;;;;3.08;2.10;;;8.20;99.90;;;;;;5027263;28;20488;-71
2024/01/04 09:29:16;;;;;;;6.13;1.52;;;8.20;99.90;;;;;;5027236;28;20029;-70
2024/01/04 09:31:42;;;;;;;3.03;1.15;;;8.30;99.90;;;;;;5024314;28;20052;-71
2024/01/04 09:34:08;;;;;;;8.18;4.07;;;8.40;99.90;;;;;;5025963;28;20033;-70
2024/01/04 09:36:34;;;;;;;5.35;2.08;;;8.40;99.90;;;;;;5026538;28;20036;-70
2024/01/04 09:38:59;;;;;;;7.13;2.50;;;8.50;99.90;;;;;;5021504;28;20040;-71
2024/01/04 09:41:33;;;;;;;4.13;2.65;;;8.40;99.90;;;;;;5023312;28;20075;-71
2024/01/04 09:44:09;;;;;;;5.80;1.98;;;8.40;99.90;;;;;;5017198;28;20026;-71
2024/01/04 09:46:39;;;;;;;6.07;0.90;;;8.40;99.90;;;;;;5024635;28;20859;-71
2024/01/04 09:49:09;;;;;;;4.10;1.63;;;8.30;99.90;;;;;;5028528;28;20033;-72
2024/01/04 09:51:39;;;;;;;5.65;1.30;;;8.30;99.90;;;;;;5020463;28;20033;-72
2024/01/04 09:54:10;;;;;;;3.25;0.80;;;8.30;99.90;;;;;;5027587;28;20033;-71
2024/01/04 09:56:40;;;;;;;5.15;2.10;;;8.30;99.90;;;;;;5026772;28;20025;-71
2024/01/04 09:59:07;;;;;;;6.50;2.15;;;8.30;99.90;;;;;;5022171;28;20064;-72
2024/01/04 10:01:35;;;;;;;4.75;1.65;;;8.30;99.90;;;;;;5025251;28;20465;-72
2024/01/04 10:04:17;;;;;;;3.72;1.40;;;8.30;99.90;;;;;;5025062;28;20017;-72
2024/01/04 10:06:44;;;;;;;2.33;0.85;;;8.40;99.90;;;;;;5018769;28;20025;-72
2024/01/04 10:09:18;;;;;;;2.42;1.10;;;8.40;99.90;;;;;;5023676;28;20545;-72
2024/01/04 10:12:03;;;;;;;1.63;0.77;;;8.30;99.90;;;;;;5016224;28;20025;-71
2024/01/04 10:14:30;;;;;;;3.22;1.20;;;8.30;99.90;;;;;;5014556;28;20383;-73
2024/01/04 10:16:56;;;;;;;5.63;0.90;;;8.40;99.90;;;;;;5016802;28;20080;-73
2024/01/04 10:19:23;;;;;;;4.97;1.75;;;8.30;99.90;;;;;;5012240;28;20036;-73
2024/01/04 10:21:50;;;;;;;2.38;1.10;;;8.30;99.90;;;;;;5012611;28;20026;-73
2024/01/04 10:24:25;;;;;;;2.40;1.30;;;8.30;99.90;;;;;;5025443;28;20029;-73
2024/01/04 10:26:55;;;;;;;4.15;1.42;;;8.30;99.90;;;;;;5040542;28;20167;-73
2024/01/04 10:29:21;;;;;;;7.68;1.77;;;8.40;99.90;;;;;;5021398;28;20477;-72
2024/01/04 10:31:57;;;;;;;5.57;2.47;;;8.40;99.90;;;;;;5018894;28;20116;-72
2024/01/04 10:34:22;;;;;;;5.60;1.23;;;8.50;99.90;;;;;;5021361;28;20026;-73
2024/01/04 10:36:48;;;;;;;4.30;1.23;;;8.50;99.90;;;;;;5023764;28;20485;-74
2024/01/04 10:39:19;;;;;;;4.68;1.20;;;8.60;99.90;;;;;;5027702;28;20022;-76
2024/01/04 10:41:59;;;;;;;3.38;1.05;;;8.60;99.90;;;;;;5023330;28;20038;-73
2024/01/04 10:44:25;;;;;;;4.18;1.55;;;8.50;99.90;;;;;;5030412;28;20103;-73
2024/01/04 10:46:55;;;;;;;5.80;1.58;;;8.60;99.90;;;;;;5027295;28;20026;-72
2024/01/04 10:49:24;;;;;;;5.00;0.90;;;8.60;99.90;;;;;;5023068;28;20076;-73
2024/01/04 10:51:56;;;;;;;3.15;0.90;;;8.60;99.90;;;;;;5029088;28;20480;-73
2024/01/04 10:54:29;;;;;;;4.90;1.92;;;8.70;99.90;;;;;;5030036;28;20918;-74
2024/01/04 10:56:57;;;;;;;3.75;0.98;;;8.70;99.90;;;;;;5025624;28;20481;-72
2024/01/04 10:59:23;;;;;;;6.95;1.10;;;8.70;99.90;;;;;;5028410;28;20034;-73
2024/01/04 11:01:50;;;;;;;4.72;0.85;;;8.70;99.90;;;;;;5025208;28;20028;-74
2024/01/04 11:04:16;;;;;;;4.70;1.38;;;8.70;99.90;;;;;;5027291;28;20369;-72
2024/01/04 11:06:42;;;;;;;6.25;1.30;;;8.70;99.90;;;;;;5019685;28;20056;-72
2024/01/04 11:09:08;;;;;;;6.40;0.90;;;8.70;99.90;;;;;;5025352;28;20425;-72
2024/01/04 11:11:38;;;;;;;4.72;1.20;;;8.70;99.90;;;;;;5028476;28;20037;-72
2024/01/04 11:14:04;;;;;;;3.80;1.00;;;8.80;99.90;;;;;;5025971;28;20535;-72
2024/01/04 11:16:55;;;;;;;5.05;1.30;;;8.80;99.90;;;;;;5025096;28;20026;-72
2024/01/04 11:19:33;;;;;;;6.32;1.48;;;8.90;99.90;;;;;;5017256;28;20040;-72
2024/01/04 11:22:38;;;;;;;3.83;0.60;;;8.90;99.90;;;;;;5029140;28;20495;-72
2024/01/04 11:25:39;;;;;;;4.18;0.77;;;8.90;99.90;;;;;;5021062;28;20033;-72
2024/01/04 11:28:08;;;;;;;2.33;0.52;;;9.00;99.90;;;;;;5029954;28;20033;-72
2024/01/04 11:30:33;;;;;;;3.05;0.77;;;9.00;99.90;;;;;;5023445;28;20029;-72
2024/01/04 11:32:59;;;;;;;5.82;0.73;;;9.00;99.90;;;;;;5028266;28;20032;-72
2024/01/04 11:35:25;;;;;;;3.63;0.70;;;9.00;99.90;;;;;;5027502;28;20037;-72
2024/01/04 11:37:52;;;;;;;3.15;0.63;;;9.10;99.90;;;;;;5024256;28;20032;-72
2024/01/04 11:40:29;;;;;;;3.13;0.80;;;9.10;99.90;;;;;;5028508;28;20030;-72
2024/01/04 11:42:56;;;;;;;2.58;0.70;;;9.10;99.90;;;;;;5024800;28;20018;-72
2024/01/04 11:45:23;;;;;;;2.17;0.50;;;9.20;99.90;;;;;;5030713;28;20022;-72
2024/01/04 11:47:52;;;;;;;1.92;0.55;;;9.10;99.90;;;;;;5028857;28;20500;-72
2024/01/04 11:50:21;;;;;;;3.55;0.50;;;9.20;99.90;;;;;;5029014;28;20104;-72
2024/01/04 11:52:47;;;;;;;4.68;0.98;;;9.20;99.90;;;;;;5029249;28;20049;-72
2024/01/04 11:55:26;;;;;;;2.38;0.57;;;9.20;99.90;;;;;;5025335;28;20060;-72
2024/01/04 11:58:09;;;;;;;3.05;0.77;;;9.20;99.90;;;;;;5028397;28;20033;-72
2024/01/04 12:00:36;;;;;;;1.95;0.55;;;9.10;99.90;;;;;;5029111;28;20496;-72
2024/01/04 12:03:11;;;;;;;1.80;0.52;;;9.10;99.90;;;;;;5026814;28;20017;-72
2024/01/04 12:05:37;;;;;;;2.88;0.80;;;9.00;99.90;;;;;;5024954;28;20124;-72
2024/01/04 12:08:03;;;;;;;2.58;0.77;;;9.00;99.90;;;;;;5027347;28;20552;-72
2024/01/04 12:10:28;;;;;;;2.42;0.70;;;9.10;99.90;;;;;;5023035;28;20029;-72
2024/01/04 12:12:54;;;;;;;3.60;0.85;;;9.10;99.90;;;;;;5028176;28;20041;-72
2024/01/04 12:15:20;;;;;;;5.25;0.90;;;9.10;99.90;;;;;;5023289;28;20100;-73
2024/01/04 12:17:46;;;;;;;2.53;0.60;;;9.10;99.90;;;;;;5026532;28;20026;-72
2024/01/04 12:20:12;;;;;;;1.55;0.55;;;9.10;99.90;;;;;;5027679;28;20049;-72
2024/01/04 12:22:41;;;;;;;2.63;0.50;;;9.10;99.90;;;;;;5045581;28;20112;-72
2024/01/04 12:25:08;;;;;;;2.88;0.57;;;9.10;99.90;;;;;;5027361;28;20017;-72
2024/01/04 12:27:38;;;;;;;2.28;0.55;;;9.10;99.90;;;;;;5028291;28;20029;-72
2024/01/04 12:30:06;;;;;;;5.47;1.20;;;9.20;99.90;;;;;;5016877;28;20087;-73
2024/01/04 12:32:34;;;;;;;3.97;0.90;;;9.30;99.90;;;;;;5026107;28;20041;-72
2024/01/04 12:35:03;;;;;;;5.63;1.15;;;9.30;99.90;;;;;;5026130;28;20084;-72
2024/01/04 12:37:29;;;;;;;9.95;3.08;;;9.50;99.90;;;;;;5026730;28;20098;-72
2024/01/04 12:40:08;;;;;;;4.32;2.10;;;9.70;99.90;;;;;;5023646;28;20028;-71
2024/01/04 12:42:34;;;;;;;5.95;1.73;;;9.90;99.90;;;;;;5027188;28;20033;-71
2024/01/04 12:45:00;;;;;;;1.35;0.70;;;10.00;99.90;;;;;;5041621;28;20026;-71
2024/01/04 12:47:27;;;;;;;3.78;1.75;;;10.00;99.90;;;;;;5026582;28;20510;-72
2024/01/04 12:49:56;;;;;;;3.17;1.05;;;10.10;99.90;;;;;;5027554;28;20025;-71
2024/01/04 12:52:22;;;;;;;4.63;1.42;;;10.00;99.90;;;;;;5027530;28;20067;-72
2024/01/04 12:54:48;;;;;;;3.53;1.30;;;10.10;99.90;;;;;;5027739;28;20034;-73
2024/01/04 12:57:13;;;;;;;8.50;2.67;;;10.10;99.90;;;;;;5029602;28;20037;-72